createdAt,value
2023-03-11T00:00:27.565Z,0.00
2023-03-11T00:01:27.574Z,0.00
2023-03-11T00:02:27.631Z,0.00
2023-03-11T00:03:27.520Z,0.00
2023-03-11T00:04:27.502Z,0.00
2023-03-11T00:05:27.613Z,0.00
2023-03-11T00:06:27.503Z,0.00
2023-03-11T00:07:27.484Z,0.00
2023-03-11T00:08:27.497Z,0.00
2023-03-11T00:09:27.432Z,0.00
2023-03-11T00:10:29.906Z,0.00
2023-03-11T00:11:27.397Z,0.00
2023-03-11T00:12:27.409Z,0.00
2023-03-11T00:13:27.372Z,0.00
2023-03-11T00:14:27.353Z,0.00
2023-03-11T00:15:27.337Z,0.00
2023-03-11T00:16:27.357Z,0.00
2023-03-11T00:17:27.309Z,0.00
2023-03-11T00:18:27.320Z,0.00
2023-03-11T00:19:27.279Z,0.00
2023-03-11T00:20:27.267Z,0.00
2023-03-11T00:21:27.245Z,0.00
2023-03-11T00:22:27.234Z,0.00
2023-03-11T00:23:27.222Z,0.00
2023-03-11T00:24:27.202Z,0.00
2023-03-11T00:25:27.197Z,0.00
2023-03-11T00:26:27.172Z,0.00
2023-03-11T00:27:27.152Z,0.00
2023-03-11T00:28:27.143Z,0.00
2023-03-11T00:29:27.124Z,0.00
2023-03-11T00:30:27.116Z,0.00
2023-03-11T00:31:27.095Z,0.00
2023-03-11T00:32:27.125Z,0.00
2023-03-11T00:33:27.060Z,0.00
2023-03-11T00:34:27.068Z,0.00
2023-03-11T00:35:27.030Z,0.00
2023-03-11T00:36:27.018Z,0.00
2023-03-11T00:37:26.997Z,0.00
2023-03-11T00:38:27.013Z,0.00
2023-03-11T00:39:26.969Z,0.00
2023-03-11T00:40:26.956Z,0.00
2023-03-11T00:41:26.938Z,0.00
2023-03-11T00:42:26.922Z,0.00
2023-03-11T00:43:26.905Z,0.00
2023-03-11T00:44:26.898Z,0.00
2023-03-11T00:45:26.874Z,0.00
2023-03-11T00:46:26.910Z,0.00
2023-03-11T00:47:26.842Z,0.00
2023-03-11T00:48:26.828Z,0.00
2023-03-11T00:49:26.811Z,0.00
2023-03-11T00:50:26.831Z,0.00
2023-03-11T00:51:26.780Z,0.00
2023-03-11T00:52:26.799Z,0.00
2023-03-11T00:53:26.747Z,0.00
2023-03-11T00:54:26.754Z,0.00
2023-03-11T00:55:26.720Z,0.00
2023-03-11T00:56:26.707Z,0.00
2023-03-11T00:57:26.687Z,0.00
2023-03-11T00:58:26.674Z,0.00
2023-03-11T00:59:26.661Z,0.00
2023-03-11T01:00:26.650Z,0.00
2023-03-11T01:01:26.696Z,0.00
2023-03-11T01:02:26.616Z,0.00
2023-03-11T01:03:26.594Z,0.00
2023-03-11T01:04:26.592Z,0.00
2023-03-11T01:05:26.560Z,0.00
2023-03-11T01:06:35.751Z,0.00
2023-03-11T01:07:26.531Z,0.00
2023-03-11T01:08:26.517Z,0.00
2023-03-11T01:09:26.508Z,0.00
2023-03-11T01:10:26.485Z,0.00
2023-03-11T01:11:26.468Z,0.00
2023-03-11T01:12:26.455Z,0.00
2023-03-11T01:13:26.437Z,0.00
2023-03-11T01:14:26.425Z,0.00
2023-03-11T01:15:26.408Z,0.00
2023-03-11T01:16:26.401Z,0.00
2023-03-11T01:17:26.377Z,0.00
2023-03-11T01:18:26.361Z,0.00
2023-03-11T01:19:26.342Z,0.00
2023-03-11T01:20:26.330Z,0.00
2023-03-11T01:21:26.316Z,0.00
2023-03-11T01:22:26.327Z,0.00
2023-03-11T01:23:26.288Z,0.00
2023-03-11T01:24:26.279Z,0.00
2023-03-11T01:25:26.257Z,0.00
2023-03-11T01:26:26.236Z,0.00
2023-03-11T01:27:26.222Z,0.00
2023-03-11T01:28:26.209Z,0.00
2023-03-11T01:29:26.187Z,0.00
2023-03-11T01:30:26.171Z,0.00
2023-03-11T01:31:26.245Z,0.00
2023-03-11T01:32:26.190Z,0.00
2023-03-11T01:33:26.118Z,0.00
2023-03-11T01:34:26.110Z,0.00
2023-03-11T01:35:26.197Z,0.00
2023-03-11T01:36:26.076Z,0.00
2023-03-11T01:37:26.056Z,0.00
2023-03-11T01:38:26.068Z,0.00
2023-03-11T01:39:26.031Z,0.00
2023-03-11T01:40:26.011Z,0.00
2023-03-11T01:41:26.005Z,0.00
2023-03-11T01:42:25.980Z,0.00
2023-03-11T01:43:25.958Z,0.00
2023-03-11T01:44:25.953Z,0.00
2023-03-11T01:45:25.925Z,0.00
2023-03-11T01:46:26.034Z,0.00
2023-03-11T01:47:25.893Z,0.00
2023-03-11T01:48:25.881Z,0.00
2023-03-11T01:49:25.866Z,0.00
2023-03-11T01:50:25.865Z,0.00
2023-03-11T01:51:25.841Z,0.00
2023-03-11T01:52:25.835Z,0.00
2023-03-11T01:53:25.795Z,0.00
2023-03-11T01:54:25.804Z,0.00
2023-03-11T01:55:25.766Z,0.00
2023-03-11T01:56:25.761Z,0.00
2023-03-11T01:57:25.732Z,0.00
2023-03-11T01:58:25.720Z,0.00
2023-03-11T01:59:25.698Z,0.00
2023-03-11T02:00:25.685Z,0.00
2023-03-11T02:01:25.743Z,0.00
2023-03-11T02:02:25.654Z,0.00
2023-03-11T02:03:25.635Z,0.00
2023-03-11T02:04:25.622Z,0.00
2023-03-11T02:05:25.604Z,0.00
2023-03-11T02:06:25.589Z,0.00
2023-03-11T02:07:25.570Z,0.00
2023-03-11T02:08:25.558Z,0.00
2023-03-11T02:10:25.548Z,0.00
2023-03-11T02:11:25.515Z,0.00
2023-03-11T02:12:25.491Z,0.00
2023-03-11T02:13:25.480Z,0.00
2023-03-11T02:14:25.461Z,0.00
2023-03-11T02:15:25.449Z,0.00
2023-03-11T02:16:25.471Z,0.00
2023-03-11T02:17:25.414Z,0.00
2023-03-11T02:18:25.403Z,0.00
2023-03-11T02:19:25.384Z,0.00
2023-03-11T02:20:25.384Z,0.00
2023-03-11T02:21:25.355Z,0.00
2023-03-11T02:22:25.341Z,0.00
2023-03-11T02:23:25.320Z,0.00
2023-03-11T02:24:25.311Z,0.00
2023-03-11T02:25:25.286Z,0.00
2023-03-11T02:26:25.303Z,0.00
2023-03-11T02:27:25.256Z,0.00
2023-03-11T02:28:25.249Z,0.00
2023-03-11T02:29:25.223Z,0.00
2023-03-11T02:30:25.211Z,0.00
2023-03-11T02:31:25.295Z,0.00
2023-03-11T02:32:25.210Z,0.00
2023-03-11T02:33:25.158Z,0.00
2023-03-11T02:34:25.156Z,0.00
2023-03-11T02:35:25.141Z,0.00
2023-03-11T02:36:25.115Z,0.00
2023-03-11T02:37:25.098Z,0.00
2023-03-11T02:38:25.087Z,0.00
2023-03-11T02:39:25.064Z,0.00
2023-03-11T02:40:25.050Z,0.00
2023-03-11T02:41:25.031Z,0.00
2023-03-11T02:42:25.053Z,0.00
2023-03-11T02:43:25.006Z,0.00
2023-03-11T02:44:24.984Z,0.00
2023-03-11T02:45:24.965Z,0.00
2023-03-11T02:46:24.995Z,0.00
2023-03-11T02:47:24.933Z,0.00
2023-03-11T02:48:24.915Z,0.00
2023-03-11T02:49:24.899Z,0.00
2023-03-11T02:50:24.882Z,0.00
2023-03-11T02:51:24.867Z,0.00
2023-03-11T02:52:24.848Z,0.00
2023-03-11T02:53:24.831Z,0.00
2023-03-11T02:54:24.816Z,0.00
2023-03-11T02:55:24.793Z,0.00
2023-03-11T02:57:24.761Z,0.00
2023-03-11T02:58:24.764Z,0.00
2023-03-11T02:59:24.748Z,0.00
2023-03-11T03:00:24.706Z,0.00
2023-03-11T03:01:24.694Z,0.00
2023-03-11T03:02:24.675Z,0.00
2023-03-11T03:03:24.665Z,0.00
2023-03-11T03:04:24.763Z,0.00
2023-03-11T03:05:24.635Z,0.00
2023-03-11T03:06:24.611Z,0.00
2023-03-11T03:07:24.595Z,0.00
2023-03-11T03:08:24.576Z,0.00
2023-03-11T03:09:24.563Z,0.00
2023-03-11T03:10:24.546Z,0.00
2023-03-11T03:11:24.526Z,0.00
2023-03-11T03:12:24.506Z,0.00
2023-03-11T03:13:24.496Z,0.00
2023-03-11T03:14:24.493Z,0.00
2023-03-11T03:15:24.464Z,0.00
2023-03-11T03:16:24.502Z,0.00
2023-03-11T03:17:24.474Z,0.00
2023-03-11T03:18:24.408Z,0.00
2023-03-11T03:19:24.402Z,0.00
2023-03-11T03:20:24.375Z,0.00
2023-03-11T03:21:24.359Z,0.00
2023-03-11T03:22:24.341Z,0.00
2023-03-11T03:23:24.329Z,0.00
2023-03-11T03:24:24.313Z,0.00
2023-03-11T03:25:24.292Z,0.00
2023-03-11T03:26:24.274Z,0.00
2023-03-11T03:27:24.261Z,0.00
2023-03-11T03:28:24.241Z,0.00
2023-03-11T03:29:24.227Z,0.00
2023-03-11T03:30:24.249Z,0.00
2023-03-11T03:31:24.272Z,0.00
2023-03-11T03:32:24.189Z,0.00
2023-03-11T03:33:24.164Z,0.00
2023-03-11T03:34:24.142Z,0.00
2023-03-11T03:35:24.131Z,0.00
2023-03-11T03:36:24.108Z,0.00
2023-03-11T03:37:24.096Z,0.00
2023-03-11T03:38:24.080Z,0.00
2023-03-11T03:39:24.064Z,0.00
2023-03-11T03:40:24.044Z,0.00
2023-03-11T03:41:24.030Z,0.00
2023-03-11T03:42:24.011Z,0.00
2023-03-11T03:43:23.997Z,0.00
2023-03-11T03:44:23.978Z,0.00
2023-03-11T03:45:23.971Z,0.00
2023-03-11T03:46:24.040Z,0.00
2023-03-11T03:47:23.933Z,0.00
2023-03-11T03:48:23.911Z,0.00
2023-03-11T03:49:23.900Z,0.00
2023-03-11T03:50:23.888Z,0.00
2023-03-11T03:51:23.866Z,0.00
2023-03-11T03:52:23.852Z,0.00
2023-03-11T03:53:23.854Z,0.00
2023-03-11T03:54:23.817Z,0.00
2023-03-11T03:55:23.803Z,0.00
2023-03-11T03:56:23.785Z,0.00
2023-03-11T03:57:23.775Z,0.00
2023-03-11T03:58:23.756Z,0.00
2023-03-11T03:59:23.745Z,0.00
2023-03-11T04:00:23.723Z,0.00
2023-03-11T04:01:23.739Z,0.00
2023-03-11T04:02:23.769Z,0.00
2023-03-11T04:03:23.770Z,0.00
2023-03-11T04:04:23.657Z,0.00
2023-03-11T04:05:23.643Z,0.00
2023-03-11T04:06:23.639Z,0.00
2023-03-11T04:07:23.633Z,0.00
2023-03-11T04:08:23.594Z,0.00
2023-03-11T04:09:23.579Z,0.00
2023-03-11T04:10:23.560Z,0.00
2023-03-11T04:11:23.548Z,0.00
2023-03-11T04:12:23.541Z,0.00
2023-03-11T04:13:23.530Z,0.00
2023-03-11T04:14:23.497Z,0.00
2023-03-11T04:15:56.695Z,0.00
2023-03-11T04:16:23.675Z,0.00
2023-03-11T04:17:23.455Z,0.00
2023-03-11T04:18:23.458Z,0.00
2023-03-11T04:19:23.411Z,0.00
2023-03-11T04:20:23.394Z,0.00
2023-03-11T04:21:23.392Z,0.00
2023-03-11T04:22:23.401Z,0.00
2023-03-11T04:23:23.357Z,0.00
2023-03-11T04:24:23.330Z,0.00
2023-03-11T04:25:23.359Z,0.00
2023-03-11T04:26:23.316Z,0.00
2023-03-11T04:27:23.280Z,0.00
2023-03-11T04:28:23.266Z,0.00
2023-03-11T04:29:23.245Z,0.00
2023-03-11T04:30:23.236Z,0.00
2023-03-11T04:31:23.351Z,0.00
2023-03-11T04:32:23.219Z,0.00
2023-03-11T04:33:23.180Z,0.00
2023-03-11T04:34:23.249Z,0.00
2023-03-11T04:35:23.194Z,0.00
2023-03-11T04:36:23.131Z,0.00
2023-03-11T04:37:23.113Z,0.00
2023-03-11T04:38:23.099Z,0.00
2023-03-11T04:39:23.078Z,0.00
2023-03-11T04:40:23.067Z,0.00
2023-03-11T04:41:23.043Z,0.00
2023-03-11T04:42:23.033Z,0.00
2023-03-11T04:43:23.011Z,0.00
2023-03-11T04:44:23.021Z,0.00
2023-03-11T04:45:22.981Z,0.00
2023-03-11T04:46:23.041Z,0.00
2023-03-11T04:47:22.946Z,0.00
2023-03-11T04:48:22.948Z,0.00
2023-03-11T04:49:22.916Z,0.00
2023-03-11T04:50:22.944Z,0.00
2023-03-11T04:51:22.879Z,0.00
2023-03-11T04:52:22.868Z,0.00
2023-03-11T04:53:22.848Z,0.00
2023-03-11T04:54:22.857Z,0.00
2023-03-11T04:55:22.814Z,0.00
2023-03-11T04:56:22.801Z,0.00
2023-03-11T04:57:22.784Z,0.00
2023-03-11T04:58:22.790Z,0.00
2023-03-11T04:59:22.752Z,0.00
2023-03-11T05:00:22.738Z,0.00
2023-03-11T05:01:22.829Z,0.00
2023-03-11T05:02:22.704Z,0.00
2023-03-11T05:03:22.741Z,0.00
2023-03-11T05:04:22.797Z,0.00
2023-03-11T05:05:22.648Z,0.00
2023-03-11T05:06:22.656Z,0.00
2023-03-11T05:07:22.616Z,0.00
2023-03-11T05:08:22.605Z,0.00
2023-03-11T05:09:22.589Z,0.00
2023-03-11T05:10:22.804Z,0.00
2023-03-11T05:11:22.548Z,0.00
2023-03-11T05:12:22.536Z,0.00
2023-03-11T05:13:22.517Z,0.00
2023-03-11T05:14:22.514Z,0.00
2023-03-11T05:15:22.488Z,0.00
2023-03-11T05:16:22.558Z,0.00
2023-03-11T05:17:22.452Z,0.00
2023-03-11T05:18:22.441Z,0.00
2023-03-11T05:19:22.420Z,0.00
2023-03-11T05:20:22.405Z,0.00
2023-03-11T05:21:22.396Z,0.00
2023-03-11T05:22:22.402Z,0.00
2023-03-11T05:23:22.353Z,0.00
2023-03-11T05:24:22.339Z,0.00
2023-03-11T05:25:22.319Z,0.00
2023-03-11T05:26:22.304Z,0.00
2023-03-11T05:27:22.289Z,0.00
2023-03-11T05:29:22.262Z,0.00
2023-03-11T05:30:22.237Z,0.00
2023-03-11T05:31:22.278Z,0.00
2023-03-11T05:32:22.265Z,0.00
2023-03-11T05:33:22.190Z,0.00
2023-03-11T05:34:22.170Z,4.00
2023-03-11T05:35:22.205Z,0.00
2023-03-11T05:36:22.138Z,0.00
2023-03-11T05:37:22.137Z,0.00
2023-03-11T05:38:22.128Z,4.00
2023-03-11T05:39:22.097Z,4.00
2023-03-11T05:40:22.082Z,4.00
2023-03-11T05:41:22.065Z,0.00
2023-03-11T05:42:22.054Z,4.00
2023-03-11T05:43:22.029Z,4.00
2023-03-11T05:44:22.022Z,8.00
2023-03-11T05:45:21.996Z,4.00
2023-03-11T05:46:22.001Z,8.00
2023-03-11T05:47:21.965Z,8.00
2023-03-11T05:48:21.946Z,8.00
2023-03-11T05:49:21.943Z,8.00
2023-03-11T05:50:21.912Z,8.00
2023-03-11T05:51:21.903Z,12.00
2023-03-11T05:52:21.881Z,12.00
2023-03-11T05:53:21.889Z,12.00
2023-03-11T05:54:21.866Z,12.00
2023-03-11T05:55:21.836Z,12.00
2023-03-11T05:56:21.814Z,12.00
2023-03-11T05:57:21.798Z,16.00
2023-03-11T05:58:21.825Z,16.00
2023-03-11T05:59:21.766Z,20.00
2023-03-11T06:00:21.753Z,20.00
2023-03-11T06:01:21.734Z,24.00
2023-03-11T06:02:21.720Z,20.00
2023-03-11T06:03:21.703Z,24.00
2023-03-11T06:04:21.895Z,20.00
2023-03-11T06:05:21.703Z,20.00
2023-03-11T06:06:21.651Z,20.00
2023-03-11T06:07:21.632Z,24.00
2023-03-11T06:08:21.614Z,28.00
2023-03-11T06:09:21.598Z,28.00
2023-03-11T06:10:21.603Z,32.00
2023-03-11T06:11:21.594Z,32.00
2023-03-11T06:12:21.550Z,36.00
2023-03-11T06:13:21.532Z,40.00
2023-03-11T06:14:21.518Z,40.00
2023-03-11T06:15:21.509Z,40.00
2023-03-11T06:16:21.526Z,44.00
2023-03-11T06:17:21.468Z,48.00
2023-03-11T06:18:21.451Z,44.00
2023-03-11T06:19:21.437Z,48.00
2023-03-11T06:20:21.416Z,48.00
2023-03-11T06:21:21.405Z,48.00
2023-03-11T06:22:21.381Z,52.00
2023-03-11T06:23:21.380Z,56.00
2023-03-11T06:24:21.349Z,56.00
2023-03-11T06:25:21.359Z,60.00
2023-03-11T06:26:21.341Z,60.00
2023-03-11T06:27:21.302Z,64.00
2023-03-11T06:28:21.286Z,68.00
2023-03-11T06:29:21.272Z,72.00
2023-03-11T06:30:21.247Z,72.00
2023-03-11T06:31:21.268Z,72.00
2023-03-11T06:32:21.247Z,72.00
2023-03-11T06:33:21.202Z,76.00
2023-03-11T06:34:21.189Z,84.00
2023-03-11T06:35:21.170Z,92.00
2023-03-11T06:36:21.153Z,100.00
2023-03-11T06:37:21.154Z,108.00
2023-03-11T06:38:21.121Z,116.00
2023-03-11T06:39:21.100Z,124.00
2023-03-11T06:40:21.087Z,128.00
2023-03-11T06:41:21.071Z,140.00
2023-03-11T06:42:21.074Z,148.00
2023-03-11T06:43:21.033Z,152.00
2023-03-11T06:44:21.019Z,156.00
2023-03-11T06:45:21.003Z,164.00
2023-03-11T06:46:21.016Z,160.00
2023-03-11T06:47:20.970Z,152.00
2023-03-11T06:48:20.955Z,148.00
2023-03-11T06:49:20.933Z,148.00
2023-03-11T06:50:20.924Z,148.00
2023-03-11T06:51:20.901Z,156.00
2023-03-11T06:52:20.886Z,156.00
2023-03-11T06:53:20.867Z,160.00
2023-03-11T06:54:20.860Z,164.00
2023-03-11T06:55:20.835Z,176.00
2023-03-11T06:56:20.818Z,184.00
2023-03-11T06:57:20.801Z,188.00
2023-03-11T06:58:20.813Z,192.00
2023-03-11T06:59:20.768Z,188.00
2023-03-11T07:00:20.762Z,184.00
2023-03-11T07:01:20.829Z,184.00
2023-03-11T07:02:20.738Z,180.00
2023-03-11T07:03:20.707Z,188.00
2023-03-11T07:04:20.738Z,200.00
2023-03-11T07:05:20.671Z,204.00
2023-03-11T07:06:20.655Z,212.00
2023-03-11T07:07:20.639Z,212.00
2023-03-11T07:08:20.636Z,208.00
2023-03-11T07:09:20.612Z,200.00
2023-03-11T07:10:20.588Z,212.00
2023-03-11T07:11:20.571Z,228.00
2023-03-11T07:12:20.558Z,236.00
2023-03-11T07:13:20.548Z,240.00
2023-03-11T07:14:20.607Z,228.00
2023-03-11T07:15:20.504Z,216.00
2023-03-11T07:16:20.694Z,204.00
2023-03-11T07:17:20.489Z,196.00
2023-03-11T07:18:20.457Z,188.00
2023-03-11T07:19:20.527Z,172.00
2023-03-11T07:20:20.425Z,156.00
2023-03-11T07:21:20.408Z,132.00
2023-03-11T07:22:20.401Z,116.00
2023-03-11T07:23:20.397Z,104.00
2023-03-11T07:24:20.361Z,108.00
2023-03-11T07:25:20.342Z,120.00
2023-03-11T07:26:20.334Z,144.00
2023-03-11T07:27:20.879Z,184.00
2023-03-11T07:28:20.290Z,216.00
2023-03-11T07:29:20.293Z,268.00
2023-03-11T07:30:20.691Z,312.00
2023-03-11T07:31:20.320Z,348.00
2023-03-11T07:32:20.240Z,376.00
2023-03-11T07:33:20.206Z,396.00
2023-03-11T07:34:20.194Z,396.00
2023-03-11T07:35:20.175Z,380.00
2023-03-11T07:36:20.164Z,356.00
2023-03-11T07:37:20.139Z,336.00
2023-03-11T07:38:20.126Z,324.00
2023-03-11T07:39:20.265Z,316.00
2023-03-11T07:40:20.089Z,324.00
2023-03-11T07:41:20.532Z,336.00
2023-03-11T07:42:20.645Z,344.00
2023-03-11T07:43:20.071Z,348.00
2023-03-11T07:44:20.428Z,348.00
2023-03-11T07:45:20.206Z,364.00
2023-03-11T07:46:20.102Z,392.00
2023-03-11T07:47:19.971Z,412.00
2023-03-11T07:48:19.956Z,432.00
2023-03-11T07:49:20.092Z,444.00
2023-03-11T07:50:19.921Z,448.00
2023-03-11T07:51:19.910Z,444.00
2023-03-11T07:52:19.890Z,436.00
2023-03-11T07:53:19.866Z,428.00
2023-03-11T07:54:19.859Z,416.00
2023-03-11T07:55:19.834Z,408.00
2023-03-11T07:56:19.818Z,396.00
2023-03-11T07:57:19.801Z,384.00
2023-03-11T07:58:19.790Z,384.00
2023-03-11T07:59:19.768Z,376.00
2023-03-11T08:00:19.755Z,376.00
2023-03-11T08:01:19.732Z,388.00
2023-03-11T08:02:19.761Z,392.00
2023-03-11T08:03:19.728Z,396.00
2023-03-11T08:04:19.679Z,400.00
2023-03-11T08:05:19.660Z,416.00
2023-03-11T08:06:19.648Z,428.00
2023-03-11T08:07:19.628Z,440.00
2023-03-11T08:08:19.619Z,452.00
2023-03-11T08:09:19.594Z,468.00
2023-03-11T08:10:19.579Z,488.00
2023-03-11T08:11:19.559Z,496.00
2023-03-11T08:12:19.545Z,504.00
2023-03-11T08:13:19.526Z,512.00
2023-03-11T08:14:19.517Z,520.00
2023-03-11T08:15:19.497Z,520.00
2023-03-11T08:16:19.481Z,524.00
2023-03-11T08:17:19.466Z,528.00
2023-03-11T08:18:19.466Z,524.00
2023-03-11T08:19:19.570Z,528.00
2023-03-11T08:20:19.411Z,536.00
2023-03-11T08:21:19.407Z,540.00
2023-03-11T08:22:19.379Z,544.00
2023-03-11T08:23:19.371Z,544.00
2023-03-11T08:24:19.342Z,548.00
2023-03-11T08:25:19.325Z,552.00
2023-03-11T08:26:19.309Z,556.00
2023-03-11T08:27:19.294Z,564.00
2023-03-11T08:28:19.274Z,572.00
2023-03-11T08:29:19.257Z,576.00
2023-03-11T08:30:19.242Z,568.00
2023-03-11T08:31:19.361Z,552.00
2023-03-11T08:32:19.256Z,536.00
2023-03-11T08:33:19.189Z,532.00
2023-03-11T08:34:19.193Z,528.00
2023-03-11T08:35:19.157Z,516.00
2023-03-11T08:36:19.141Z,500.00
2023-03-11T08:37:19.118Z,496.00
2023-03-11T08:38:19.105Z,500.00
2023-03-11T08:39:19.084Z,508.00
2023-03-11T08:40:19.071Z,516.00
2023-03-11T08:41:19.054Z,516.00
2023-03-11T08:42:19.042Z,512.00
2023-03-11T08:43:19.020Z,516.00
2023-03-11T08:44:19.005Z,520.00
2023-03-11T08:45:18.984Z,532.00
2023-03-11T08:46:18.989Z,548.00
2023-03-11T08:47:18.952Z,564.00
2023-03-11T08:48:18.935Z,588.00
2023-03-11T08:49:18.913Z,620.00
2023-03-11T08:50:18.919Z,652.00
2023-03-11T08:51:18.884Z,688.00
2023-03-11T08:52:18.869Z,724.00
2023-03-11T08:53:18.848Z,748.00
2023-03-11T08:54:18.852Z,752.00
2023-03-11T08:55:18.837Z,752.00
2023-03-11T08:56:18.844Z,756.00
2023-03-11T08:57:18.778Z,780.00
2023-03-11T08:58:18.768Z,796.00
2023-03-11T08:59:18.748Z,816.00
2023-03-11T09:00:18.941Z,840.00
2023-03-11T09:01:18.716Z,876.00
2023-03-11T09:02:18.727Z,916.00
2023-03-11T09:03:18.686Z,956.00
2023-03-11T09:04:18.665Z,1000.00
2023-03-11T09:05:18.641Z,1036.00
2023-03-11T09:06:18.656Z,1064.00
2023-03-11T09:07:18.609Z,1100.00
2023-03-11T09:08:18.595Z,1120.00
2023-03-11T09:09:18.575Z,1112.00
2023-03-11T09:10:18.562Z,1088.00
2023-03-11T09:11:18.601Z,1068.00
2023-03-11T09:12:18.528Z,1064.00
2023-03-11T09:13:18.507Z,1080.00
2023-03-11T09:14:18.496Z,1120.00
2023-03-11T09:15:18.474Z,1188.00
2023-03-11T09:16:18.517Z,1292.00
2023-03-11T09:17:18.446Z,1420.00
2023-03-11T09:18:18.429Z,1548.00
2023-03-11T09:19:18.410Z,1612.00
2023-03-11T09:20:18.403Z,1572.00
2023-03-11T09:21:18.375Z,1444.00
2023-03-11T09:22:18.382Z,1304.00
2023-03-11T09:23:18.349Z,1228.00
2023-03-11T09:24:18.334Z,1208.00
2023-03-11T09:25:18.319Z,1236.00
2023-03-11T09:26:18.302Z,1308.00
2023-03-11T09:27:18.279Z,1396.00
2023-03-11T09:28:18.265Z,1472.00
2023-03-11T09:29:18.266Z,1512.00
2023-03-11T09:30:18.232Z,1548.00
2023-03-11T09:31:18.293Z,1580.00
2023-03-11T09:32:18.235Z,1652.00
2023-03-11T09:33:18.179Z,1712.00
2023-03-11T09:34:18.170Z,1724.00
2023-03-11T09:35:18.148Z,1728.00
2023-03-11T09:36:18.144Z,1744.00
2023-03-11T09:37:18.115Z,1824.00
2023-03-11T09:38:18.126Z,1884.00
2023-03-11T09:39:18.083Z,1876.00
2023-03-11T09:40:18.072Z,1824.00
2023-03-11T09:41:18.094Z,1768.00
2023-03-11T09:42:18.036Z,1724.00
2023-03-11T09:43:18.029Z,1712.00
2023-03-11T09:44:18.012Z,1708.00
2023-03-11T09:45:17.988Z,1708.00
2023-03-11T09:46:18.081Z,1716.00
2023-03-11T09:47:17.959Z,1716.00
2023-03-11T09:48:17.941Z,1676.00
2023-03-11T09:49:17.926Z,1616.00
2023-03-11T09:50:17.907Z,1572.00
2023-03-11T09:51:17.890Z,1552.00
2023-03-11T09:52:17.876Z,1620.00
2023-03-11T09:53:17.862Z,1756.00
2023-03-11T09:54:17.862Z,1908.00
2023-03-11T09:55:17.823Z,2028.00
2023-03-11T09:56:17.812Z,2096.00
2023-03-11T09:57:17.795Z,2100.00
2023-03-11T09:58:17.779Z,2052.00
2023-03-11T09:59:17.759Z,1972.00
2023-03-11T10:00:17.746Z,1916.00
2023-03-11T10:01:17.734Z,1884.00
2023-03-11T10:02:17.848Z,1808.00
2023-03-11T10:03:17.747Z,1720.00
2023-03-11T10:04:17.688Z,1600.00
2023-03-11T10:05:17.668Z,1488.00
2023-03-11T10:06:17.651Z,1384.00
2023-03-11T10:07:17.637Z,1280.00
2023-03-11T10:08:17.621Z,1212.00
2023-03-11T10:09:17.598Z,1212.00
2023-03-11T10:10:17.622Z,1300.00
2023-03-11T10:11:17.569Z,1416.00
2023-03-11T10:12:17.557Z,1440.00
2023-03-11T10:13:17.537Z,1380.00
2023-03-11T10:14:17.546Z,1324.00
2023-03-11T10:15:17.507Z,1300.00
2023-03-11T10:16:17.582Z,1300.00
2023-03-11T10:17:17.477Z,1320.00
2023-03-11T10:18:17.464Z,1364.00
2023-03-11T10:19:17.448Z,1420.00
2023-03-11T10:20:17.430Z,1488.00
2023-03-11T10:21:17.418Z,1556.00
2023-03-11T10:22:17.413Z,1600.00
2023-03-11T10:23:17.381Z,1608.00
2023-03-11T10:24:17.372Z,1564.00
2023-03-11T10:25:17.349Z,1560.00
2023-03-11T10:26:17.355Z,1636.00
2023-03-11T10:27:17.316Z,1764.00
2023-03-11T10:28:17.301Z,1888.00
2023-03-11T10:29:17.282Z,1944.00
2023-03-11T10:30:17.271Z,1924.00
2023-03-11T10:31:17.297Z,1908.00
2023-03-11T10:32:17.310Z,1916.00
2023-03-11T10:33:17.230Z,1908.00
2023-03-11T10:34:17.212Z,1916.00
2023-03-11T10:35:17.218Z,1928.00
2023-03-11T10:36:17.184Z,1920.00
2023-03-11T10:37:17.159Z,1900.00
2023-03-11T10:38:17.151Z,1844.00
2023-03-11T10:39:17.129Z,1788.00
2023-03-11T10:40:17.130Z,1752.00
2023-03-11T10:41:17.098Z,1692.00
2023-03-11T10:42:17.107Z,1616.00
2023-03-11T10:43:17.064Z,1552.00
2023-03-11T10:44:17.053Z,1520.00
2023-03-11T10:45:17.038Z,1508.00
2023-03-11T10:46:17.085Z,1504.00
2023-03-11T10:47:17.006Z,1484.00
2023-03-11T10:48:16.999Z,1432.00
2023-03-11T10:49:16.981Z,1368.00
2023-03-11T10:50:16.957Z,1324.00
2023-03-11T10:51:16.946Z,1312.00
2023-03-11T10:52:16.925Z,1304.00
2023-03-11T10:53:16.921Z,1280.00
2023-03-11T10:54:16.905Z,1256.00
2023-03-11T10:55:16.880Z,1236.00
2023-03-11T10:56:16.864Z,1224.00
2023-03-11T10:57:16.852Z,1220.00
2023-03-11T10:58:16.858Z,1228.00
2023-03-11T10:59:16.835Z,1240.00
2023-03-11T11:00:16.804Z,1272.00
2023-03-11T11:01:16.875Z,1308.00
2023-03-11T11:02:16.773Z,1352.00
2023-03-11T11:03:16.761Z,1396.00
2023-03-11T11:04:16.765Z,1448.00
2023-03-11T11:05:16.730Z,1492.00
2023-03-11T11:06:16.713Z,1520.00
2023-03-11T11:07:16.702Z,1544.00
2023-03-11T11:08:16.685Z,1572.00
2023-03-11T11:09:16.672Z,1600.00
2023-03-11T11:10:16.650Z,1620.00
2023-03-11T11:11:16.644Z,1608.00
2023-03-11T11:12:16.623Z,1572.00
2023-03-11T11:13:16.645Z,1540.00
2023-03-11T11:14:16.608Z,1520.00
2023-03-11T11:15:16.577Z,1508.00
2023-03-11T11:16:16.583Z,1496.00
2023-03-11T11:17:16.545Z,1484.00
2023-03-11T11:18:16.532Z,1476.00
2023-03-11T11:19:16.515Z,1468.00
2023-03-11T11:20:16.497Z,1460.00
2023-03-11T11:21:16.486Z,1448.00
2023-03-11T11:22:16.470Z,1456.00
2023-03-11T11:23:16.454Z,1464.00
2023-03-11T11:24:16.439Z,1484.00
2023-03-11T11:25:16.475Z,1512.00
2023-03-11T11:26:16.404Z,1548.00
2023-03-11T11:27:16.395Z,1588.00
2023-03-11T11:28:16.373Z,1620.00
2023-03-11T11:29:16.362Z,1644.00
2023-03-11T11:30:16.371Z,1668.00
2023-03-11T11:31:16.408Z,1688.00
2023-03-11T11:32:16.339Z,1712.00
2023-03-11T11:33:16.300Z,1736.00
2023-03-11T11:34:16.282Z,1760.00
2023-03-11T11:35:16.268Z,1780.00
2023-03-11T11:36:16.250Z,1804.00
2023-03-11T11:37:16.240Z,1848.00
2023-03-11T11:38:16.220Z,1892.00
2023-03-11T11:39:16.207Z,1924.00
2023-03-11T11:40:16.185Z,1944.00
2023-03-11T11:41:16.176Z,1944.00
2023-03-11T11:42:16.157Z,1960.00
2023-03-11T11:43:16.146Z,1992.00
2023-03-11T11:44:16.125Z,2048.00
2023-03-11T11:45:16.114Z,2088.00
2023-03-11T11:46:16.171Z,2104.00
2023-03-11T11:47:16.081Z,2092.00
2023-03-11T11:48:16.063Z,2056.00
2023-03-11T11:49:16.055Z,2008.00
2023-03-11T11:50:16.050Z,1936.00
2023-03-11T11:51:16.024Z,1988.00
2023-03-11T11:52:16.005Z,2096.00
2023-03-11T11:53:15.988Z,2184.00
2023-03-11T11:54:15.971Z,2232.00
2023-03-11T11:55:15.964Z,2232.00
2023-03-11T11:56:15.944Z,2260.00
2023-03-11T11:57:15.928Z,2280.00
2023-03-11T11:58:15.911Z,2276.00
2023-03-11T11:59:15.897Z,2232.00
2023-03-11T12:00:15.913Z,2168.00
2023-03-11T12:01:15.889Z,2184.00
2023-03-11T12:02:15.890Z,2256.00
2023-03-11T12:03:15.904Z,2304.00
2023-03-11T12:04:15.822Z,2344.00
2023-03-11T12:05:15.858Z,2396.00
2023-03-11T12:06:15.788Z,2460.00
2023-03-11T12:07:15.783Z,2492.00
2023-03-11T12:08:15.758Z,2540.00
2023-03-11T12:09:15.753Z,2556.00
2023-03-11T12:10:22.779Z,2576.00
2023-03-11T12:11:15.718Z,2620.00
2023-03-11T12:12:15.703Z,2672.00
2023-03-11T12:13:15.720Z,2712.00
2023-03-11T12:14:15.670Z,2680.00
2023-03-11T12:15:15.671Z,2632.00
2023-03-11T12:16:15.725Z,2624.00
2023-03-11T12:17:15.629Z,2624.00
2023-03-11T12:18:15.640Z,2644.00
2023-03-11T12:19:15.600Z,2676.00
2023-03-11T12:20:15.597Z,2684.00
2023-03-11T12:21:15.571Z,2700.00
2023-03-11T12:22:15.555Z,2696.00
2023-03-11T12:23:15.545Z,2700.00
2023-03-11T12:24:15.523Z,2816.00
2023-03-11T12:25:15.515Z,2988.00
2023-03-11T12:26:15.496Z,3012.00
2023-03-11T12:27:15.494Z,2844.00
2023-03-11T12:28:15.480Z,2604.00
2023-03-11T12:29:16.201Z,2480.00
2023-03-11T12:30:15.452Z,2384.00
2023-03-11T12:31:15.494Z,2300.00
2023-03-11T12:32:15.445Z,2236.00
2023-03-11T12:33:15.398Z,2228.00
2023-03-11T12:34:15.404Z,2232.00
2023-03-11T12:35:15.370Z,2248.00
2023-03-11T12:36:15.420Z,2236.00
2023-03-11T12:37:15.342Z,2172.00
2023-03-11T12:38:15.332Z,2020.00
2023-03-11T12:39:15.314Z,1892.00
2023-03-11T12:40:15.297Z,1920.00
2023-03-11T12:41:15.294Z,1964.00
2023-03-11T12:42:15.268Z,1920.00
2023-03-11T12:43:15.257Z,1868.00
2023-03-11T12:44:15.239Z,1892.00
2023-03-11T12:45:15.231Z,1940.00
2023-03-11T12:46:15.251Z,1896.00
2023-03-11T12:47:15.201Z,1820.00